sensor_id;sensor_type;location;lat;lon;timestamp;P1;durP1;ratioP1;P2;durP2;ratioP2
76745;SDS011;65671;49.976;20.038;2024-03-22T00:02:08;39.42;;;19.30;;
76745;SDS011;65671;49.976;20.038;2024-03-22T00:04:34;37.67;;;18.33;;
76745;SDS011;65671;49.976;20.038;2024-03-22T00:07:03;43.80;;;20.33;;
76745;SDS011;65671;49.976;20.038;2024-03-22T00:09:28;37.83;;;18.98;;
76745;SDS011;65671;49.976;20.038;2024-03-22T00:11:54;33.45;;;18.45;;
76745;SDS011;65671;49.976;20.038;2024-03-22T00:14:19;36.05;;;18.75;;
76745;SDS011;65671;49.976;20.038;2024-03-22T00:16:45;42.78;;;19.80;;
76745;SDS011;65671;49.976;20.038;2024-03-22T00:19:10;36.38;;;18.88;;
76745;SDS011;65671;49.976;20.038;2024-03-22T00:21:36;37.95;;;19.98;;
76745;SDS011;65671;49.976;20.038;2024-03-22T00:24:01;39.92;;;20.38;;
76745;SDS011;65671;49.976;20.038;2024-03-22T00:26:27;40.03;;;20.80;;
76745;SDS011;65671;49.976;20.038;2024-03-22T00:28:53;40.67;;;20.95;;
76745;SDS011;65671;49.976;20.038;2024-03-22T00:31:18;42.38;;;21.08;;
76745;SDS011;65671;49.976;20.038;2024-03-22T00:33:44;40.85;;;21.40;;
76745;SDS011;65671;49.976;20.038;2024-03-22T00:36:09;46.60;;;22.08;;
76745;SDS011;65671;49.976;20.038;2024-03-22T00:38:35;39.30;;;22.35;;
76745;SDS011;65671;49.976;20.038;2024-03-22T00:41:01;47.85;;;22.75;;
76745;SDS011;65671;49.976;20.038;2024-03-22T00:43:26;44.25;;;22.98;;
76745;SDS011;65671;49.976;20.038;2024-03-22T00:45:51;44.28;;;22.27;;
76745;SDS011;65671;49.976;20.038;2024-03-22T00:48:17;44.22;;;22.88;;
76745;SDS011;65671;49.976;20.038;2024-03-22T00:50:43;42.28;;;21.80;;
76745;SDS011;65671;49.976;20.038;2024-03-22T00:53:09;45.35;;;24.08;;
76745;SDS011;65671;49.976;20.038;2024-03-22T00:55:35;46.75;;;23.52;;
76745;SDS011;65671;49.976;20.038;2024-03-22T00:58:01;47.80;;;24.30;;
76745;SDS011;65671;49.976;20.038;2024-03-22T01:00:26;47.72;;;24.58;;
76745;SDS011;65671;49.976;20.038;2024-03-22T01:02:52;45.60;;;23.70;;
76745;SDS011;65671;49.976;20.038;2024-03-22T01:05:17;46.80;;;24.88;;
76745;SDS011;65671;49.976;20.038;2024-03-22T01:07:43;48.40;;;24.77;;
76745;SDS011;65671;49.976;20.038;2024-03-22T01:10:09;50.45;;;24.20;;
76745;SDS011;65671;49.976;20.038;2024-03-22T01:12:35;49.50;;;25.42;;
76745;SDS011;65671;49.976;20.038;2024-03-22T01:15:01;49.42;;;26.27;;
76745;SDS011;65671;49.976;20.038;2024-03-22T01:17:26;54.38;;;27.83;;
76745;SDS011;65671;49.976;20.038;2024-03-22T01:19:52;59.22;;;28.30;;
76745;SDS011;65671;49.976;20.038;2024-03-22T01:22:17;51.08;;;25.52;;
76745;SDS011;65671;49.976;20.038;2024-03-22T01:24:43;50.80;;;25.83;;
76745;SDS011;65671;49.976;20.038;2024-03-22T01:27:09;57.50;;;27.90;;
76745;SDS011;65671;49.976;20.038;2024-03-22T01:29:35;51.05;;;27.45;;
76745;SDS011;65671;49.976;20.038;2024-03-22T01:32:01;47.40;;;26.80;;
76745;SDS011;65671;49.976;20.038;2024-03-22T01:34:26;51.92;;;26.42;;
76745;SDS011;65671;49.976;20.038;2024-03-22T01:36:52;46.40;;;26.15;;
76745;SDS011;65671;49.976;20.038;2024-03-22T01:39:20;55.65;;;27.70;;
76745;SDS011;65671;49.976;20.038;2024-03-22T01:41:50;48.38;;;26.15;;
76745;SDS011;65671;49.976;20.038;2024-03-22T01:44:16;56.88;;;26.73;;
76745;SDS011;65671;49.976;20.038;2024-03-22T01:46:42;52.47;;;27.52;;
76745;SDS011;65671;49.976;20.038;2024-03-22T01:49:09;53.50;;;27.08;;
76745;SDS011;65671;49.976;20.038;2024-03-22T01:51:37;46.65;;;25.27;;
76745;SDS011;65671;49.976;20.038;2024-03-22T01:54:02;45.05;;;25.40;;
76745;SDS011;65671;49.976;20.038;2024-03-22T01:56:29;47.72;;;25.73;;
76745;SDS011;65671;49.976;20.038;2024-03-22T01:58:55;45.13;;;24.92;;
76745;SDS011;65671;49.976;20.038;2024-03-22T02:01:22;52.40;;;26.33;;
76745;SDS011;65671;49.976;20.038;2024-03-22T02:03:48;48.63;;;24.70;;
76745;SDS011;65671;49.976;20.038;2024-03-22T02:06:13;44.03;;;25.48;;
76745;SDS011;65671;49.976;20.038;2024-03-22T02:08:39;46.83;;;24.90;;
76745;SDS011;65671;49.976;20.038;2024-03-22T02:11:06;50.78;;;25.27;;
76745;SDS011;65671;49.976;20.038;2024-03-22T02:13:32;44.83;;;24.55;;
76745;SDS011;65671;49.976;20.038;2024-03-22T02:15:58;49.35;;;25.05;;
76745;SDS011;65671;49.976;20.038;2024-03-22T02:18:23;45.88;;;26.02;;
76745;SDS011;65671;49.976;20.038;2024-03-22T02:20:48;48.85;;;24.50;;
76745;SDS011;65671;49.976;20.038;2024-03-22T02:23:14;47.22;;;25.92;;
76745;SDS011;65671;49.976;20.038;2024-03-22T02:25:39;45.35;;;25.88;;
76745;SDS011;65671;49.976;20.038;2024-03-22T02:28:05;49.47;;;24.02;;
76745;SDS011;65671;49.976;20.038;2024-03-22T02:30:30;48.97;;;25.02;;
76745;SDS011;65671;49.976;20.038;2024-03-22T02:32:56;47.15;;;24.88;;
76745;SDS011;65671;49.976;20.038;2024-03-22T02:35:21;42.63;;;23.77;;
76745;SDS011;65671;49.976;20.038;2024-03-22T02:37:46;42.70;;;24.10;;
76745;SDS011;65671;49.976;20.038;2024-03-22T02:42:37;41.92;;;24.23;;
76745;SDS011;65671;49.976;20.038;2024-03-22T02:45:02;47.72;;;25.77;;
76745;SDS011;65671;49.976;20.038;2024-03-22T02:47:28;45.30;;;24.65;;
76745;SDS011;65671;49.976;20.038;2024-03-22T02:49:54;48.28;;;25.58;;
76745;SDS011;65671;49.976;20.038;2024-03-22T02:52:19;51.35;;;26.95;;
76745;SDS011;65671;49.976;20.038;2024-03-22T02:54:45;48.80;;;25.70;;
76745;SDS011;65671;49.976;20.038;2024-03-22T02:57:10;50.53;;;25.73;;
76745;SDS011;65671;49.976;20.038;2024-03-22T02:59:36;44.08;;;24.83;;
76745;SDS011;65671;49.976;20.038;2024-03-22T03:02:01;42.67;;;24.17;;
76745;SDS011;65671;49.976;20.038;2024-03-22T03:04:26;42.92;;;24.60;;
76745;SDS011;65671;49.976;20.038;2024-03-22T03:06:52;45.50;;;24.38;;
76745;SDS011;65671;49.976;20.038;2024-03-22T03:09:17;43.42;;;25.10;;
76745;SDS011;65671;49.976;20.038;2024-03-22T03:11:43;45.85;;;24.65;;
76745;SDS011;65671;49.976;20.038;2024-03-22T03:14:08;47.72;;;25.23;;
76745;SDS011;65671;49.976;20.038;2024-03-22T03:16:34;44.03;;;23.83;;
76745;SDS011;65671;49.976;20.038;2024-03-22T03:18:59;48.42;;;24.92;;
76745;SDS011;65671;49.976;20.038;2024-03-22T03:21:25;49.13;;;26.33;;
76745;SDS011;65671;49.976;20.038;2024-03-22T03:23:50;50.70;;;27.05;;
76745;SDS011;65671;49.976;20.038;2024-03-22T03:26:16;51.42;;;26.48;;
76745;SDS011;65671;49.976;20.038;2024-03-22T03:28:42;44.17;;;24.15;;
76745;SDS011;65671;49.976;20.038;2024-03-22T03:31:07;46.72;;;24.88;;
76745;SDS011;65671;49.976;20.038;2024-03-22T03:33:33;47.65;;;26.63;;
76745;SDS011;65671;49.976;20.038;2024-03-22T03:35:58;50.63;;;26.30;;
76745;SDS011;65671;49.976;20.038;2024-03-22T03:38:23;46.65;;;25.33;;
76745;SDS011;65671;49.976;20.038;2024-03-22T03:40:49;44.10;;;24.90;;
76745;SDS011;65671;49.976;20.038;2024-03-22T03:43:14;51.58;;;26.50;;
76745;SDS011;65671;49.976;20.038;2024-03-22T03:45:40;50.28;;;26.00;;
76745;SDS011;65671;49.976;20.038;2024-03-22T03:48:05;47.58;;;27.52;;
76745;SDS011;65671;49.976;20.038;2024-03-22T03:50:31;51.83;;;27.63;;
76745;SDS011;65671;49.976;20.038;2024-03-22T03:52:56;51.53;;;27.20;;
76745;SDS011;65671;49.976;20.038;2024-03-22T03:55:22;51.38;;;26.65;;
76745;SDS011;65671;49.976;20.038;2024-03-22T03:57:49;53.45;;;27.38;;
76745;SDS011;65671;49.976;20.038;2024-03-22T04:00:15;50.08;;;26.83;;
76745;SDS011;65671;49.976;20.038;2024-03-22T04:02:41;51.05;;;27.63;;
76745;SDS011;65671;49.976;20.038;2024-03-22T04:05:06;48.45;;;26.55;;
76745;SDS011;65671;49.976;20.038;2024-03-22T04:07:32;52.22;;;27.35;;
76745;SDS011;65671;49.976;20.038;2024-03-22T04:09:58;49.30;;;28.23;;
76745;SDS011;65671;49.976;20.038;2024-03-22T04:12:25;54.13;;;27.23;;
76745;SDS011;65671;49.976;20.038;2024-03-22T04:14:51;50.25;;;27.55;;
76745;SDS011;65671;49.976;20.038;2024-03-22T04:17:16;49.60;;;27.27;;
76745;SDS011;65671;49.976;20.038;2024-03-22T04:19:42;52.05;;;27.65;;
76745;SDS011;65671;49.976;20.038;2024-03-22T04:22:07;50.35;;;28.30;;
76745;SDS011;65671;49.976;20.038;2024-03-22T04:24:33;52.38;;;27.83;;
76745;SDS011;65671;49.976;20.038;2024-03-22T04:26:58;49.15;;;28.52;;
76745;SDS011;65671;49.976;20.038;2024-03-22T04:29:23;52.80;;;26.45;;
76745;SDS011;65671;49.976;20.038;2024-03-22T04:31:49;53.58;;;27.15;;
76745;SDS011;65671;49.976;20.038;2024-03-22T04:34:14;51.33;;;26.63;;
76745;SDS011;65671;49.976;20.038;2024-03-22T04:36:40;47.13;;;25.88;;
76745;SDS011;65671;49.976;20.038;2024-03-22T04:39:05;49.22;;;27.33;;
76745;SDS011;65671;49.976;20.038;2024-03-22T04:41:31;52.75;;;27.20;;
76745;SDS011;65671;49.976;20.038;2024-03-22T04:43:56;46.90;;;27.55;;
76745;SDS011;65671;49.976;20.038;2024-03-22T04:46:21;49.30;;;27.10;;
76745;SDS011;65671;49.976;20.038;2024-03-22T04:48:47;49.45;;;28.33;;
76745;SDS011;65671;49.976;20.038;2024-03-22T04:51:12;49.17;;;26.40;;
76745;SDS011;65671;49.976;20.038;2024-03-22T04:53:38;45.67;;;25.55;;
76745;SDS011;65671;49.976;20.038;2024-03-22T04:56:03;50.33;;;27.58;;
76745;SDS011;65671;49.976;20.038;2024-03-22T04:58:29;44.60;;;26.58;;
76745;SDS011;65671;49.976;20.038;2024-03-22T05:00:57;47.53;;;26.70;;
76745;SDS011;65671;49.976;20.038;2024-03-22T05:03:24;49.80;;;26.52;;
76745;SDS011;65671;49.976;20.038;2024-03-22T05:05:49;53.28;;;26.45;;
76745;SDS011;65671;49.976;20.038;2024-03-22T05:08:15;45.72;;;26.00;;
76745;SDS011;65671;49.976;20.038;2024-03-22T05:10:40;47.30;;;25.45;;
76745;SDS011;65671;49.976;20.038;2024-03-22T05:13:07;46.83;;;24.83;;
76745;SDS011;65671;49.976;20.038;2024-03-22T05:15:32;42.00;;;23.23;;
76745;SDS011;65671;49.976;20.038;2024-03-22T05:17:59;42.60;;;25.00;;
76745;SDS011;65671;49.976;20.038;2024-03-22T05:20:25;47.17;;;27.05;;
76745;SDS011;65671;49.976;20.038;2024-03-22T05:22:50;45.78;;;25.77;;
76745;SDS011;65671;49.976;20.038;2024-03-22T05:25:16;42.78;;;24.30;;
76745;SDS011;65671;49.976;20.038;2024-03-22T05:27:42;44.92;;;24.77;;
76745;SDS011;65671;49.976;20.038;2024-03-22T05:30:08;43.25;;;23.83;;
76745;SDS011;65671;49.976;20.038;2024-03-22T05:32:34;43.53;;;23.83;;
76745;SDS011;65671;49.976;20.038;2024-03-22T05:35:00;49.28;;;24.88;;
76745;SDS011;65671;49.976;20.038;2024-03-22T05:37:25;45.75;;;24.52;;
76745;SDS011;65671;49.976;20.038;2024-03-22T05:39:51;42.35;;;24.10;;
76745;SDS011;65671;49.976;20.038;2024-03-22T05:42:17;46.75;;;24.27;;
76745;SDS011;65671;49.976;20.038;2024-03-22T05:44:43;42.75;;;23.13;;
76745;SDS011;65671;49.976;20.038;2024-03-22T05:47:09;40.05;;;22.67;;
76745;SDS011;65671;49.976;20.038;2024-03-22T05:49:34;40.58;;;23.50;;
76745;SDS011;65671;49.976;20.038;2024-03-22T05:52:00;39.72;;;22.27;;
76745;SDS011;65671;49.976;20.038;2024-03-22T05:54:25;44.00;;;22.75;;
76745;SDS011;65671;49.976;20.038;2024-03-22T05:56:51;38.85;;;21.85;;
76745;SDS011;65671;49.976;20.038;2024-03-22T05:59:17;40.72;;;22.48;;
76745;SDS011;65671;49.976;20.038;2024-03-22T06:01:42;42.35;;;22.25;;
76745;SDS011;65671;49.976;20.038;2024-03-22T06:04:08;39.90;;;24.05;;
76745;SDS011;65671;49.976;20.038;2024-03-22T06:06:34;44.03;;;25.02;;
76745;SDS011;65671;49.976;20.038;2024-03-22T06:09:00;39.95;;;23.17;;
76745;SDS011;65671;49.976;20.038;2024-03-22T06:11:30;39.45;;;22.10;;
76745;SDS011;65671;49.976;20.038;2024-03-22T06:13:55;40.67;;;23.38;;
76745;SDS011;65671;49.976;20.038;2024-03-22T06:16:21;38.92;;;23.73;;
76745;SDS011;65671;49.976;20.038;2024-03-22T06:18:47;40.47;;;21.45;;
76745;SDS011;65671;49.976;20.038;2024-03-22T06:21:13;39.78;;;23.38;;
76745;SDS011;65671;49.976;20.038;2024-03-22T06:23:39;41.25;;;24.13;;
76745;SDS011;65671;49.976;20.038;2024-03-22T06:26:05;38.17;;;22.38;;
76745;SDS011;65671;49.976;20.038;2024-03-22T06:28:30;40.25;;;22.08;;
76745;SDS011;65671;49.976;20.038;2024-03-22T06:30:56;42.65;;;21.80;;
76745;SDS011;65671;49.976;20.038;2024-03-22T06:33:21;38.13;;;21.20;;
76745;SDS011;65671;49.976;20.038;2024-03-22T06:35:47;39.70;;;22.48;;
76745;SDS011;65671;49.976;20.038;2024-03-22T06:38:12;37.08;;;22.00;;
76745;SDS011;65671;49.976;20.038;2024-03-22T06:40:38;38.78;;;21.35;;
76745;SDS011;65671;49.976;20.038;2024-03-22T06:43:04;39.28;;;22.73;;
76745;SDS011;65671;49.976;20.038;2024-03-22T06:45:29;37.03;;;21.67;;
76745;SDS011;65671;49.976;20.038;2024-03-22T06:47:55;39.53;;;21.88;;
76745;SDS011;65671;49.976;20.038;2024-03-22T06:50:20;40.80;;;23.45;;
76745;SDS011;65671;49.976;20.038;2024-03-22T06:52:52;37.90;;;19.52;;
76745;SDS011;65671;49.976;20.038;2024-03-22T06:55:21;40.22;;;21.90;;
76745;SDS011;65671;49.976;20.038;2024-03-22T06:57:48;37.42;;;20.83;;
76745;SDS011;65671;49.976;20.038;2024-03-22T07:00:14;33.80;;;21.65;;
76745;SDS011;65671;49.976;20.038;2024-03-22T07:02:40;38.25;;;22.33;;
76745;SDS011;65671;49.976;20.038;2024-03-22T07:05:06;37.28;;;22.15;;
76745;SDS011;65671;49.976;20.038;2024-03-22T07:07:33;37.92;;;22.02;;
76745;SDS011;65671;49.976;20.038;2024-03-22T07:10:02;39.20;;;22.17;;
76745;SDS011;65671;49.976;20.038;2024-03-22T07:12:28;34.17;;;22.48;;
76745;SDS011;65671;49.976;20.038;2024-03-22T07:14:54;36.47;;;21.30;;
76745;SDS011;65671;49.976;20.038;2024-03-22T07:17:20;34.88;;;21.65;;
76745;SDS011;65671;49.976;20.038;2024-03-22T07:19:52;37.35;;;22.00;;
76745;SDS011;65671;49.976;20.038;2024-03-22T07:22:18;33.10;;;20.67;;
76745;SDS011;65671;49.976;20.038;2024-03-22T07:24:44;40.42;;;22.35;;
76745;SDS011;65671;49.976;20.038;2024-03-22T07:27:10;34.08;;;20.60;;
76745;SDS011;65671;49.976;20.038;2024-03-22T07:29:35;37.97;;;20.63;;
76745;SDS011;65671;49.976;20.038;2024-03-22T07:32:01;37.70;;;21.15;;
76745;SDS011;65671;49.976;20.038;2024-03-22T07:34:26;37.10;;;20.35;;
76745;SDS011;65671;49.976;20.038;2024-03-22T07:36:51;33.05;;;19.52;;
76745;SDS011;65671;49.976;20.038;2024-03-22T07:39:18;37.42;;;20.98;;
76745;SDS011;65671;49.976;20.038;2024-03-22T07:41:43;37.45;;;21.45;;
76745;SDS011;65671;49.976;20.038;2024-03-22T07:44:09;36.28;;;20.33;;
76745;SDS011;65671;49.976;20.038;2024-03-22T07:46:34;31.77;;;18.52;;
76745;SDS011;65671;49.976;20.038;2024-03-22T07:49:00;36.30;;;19.75;;
76745;SDS011;65671;49.976;20.038;2024-03-22T07:51:25;35.10;;;19.35;;
76745;SDS011;65671;49.976;20.038;2024-03-22T07:53:51;36.63;;;21.38;;
76745;SDS011;65671;49.976;20.038;2024-03-22T07:56:17;39.67;;;21.15;;
76745;SDS011;65671;49.976;20.038;2024-03-22T07:58:44;35.35;;;19.38;;
76745;SDS011;65671;49.976;20.038;2024-03-22T08:01:09;35.33;;;20.98;;
76745;SDS011;65671;49.976;20.038;2024-03-22T08:03:35;41.72;;;22.42;;
76745;SDS011;65671;49.976;20.038;2024-03-22T08:06:01;39.10;;;22.30;;
76745;SDS011;65671;49.976;20.038;2024-03-22T08:08:26;39.42;;;22.33;;
76745;SDS011;65671;49.976;20.038;2024-03-22T08:10:52;40.58;;;22.70;;
76745;SDS011;65671;49.976;20.038;2024-03-22T08:13:17;45.60;;;24.58;;
76745;SDS011;65671;49.976;20.038;2024-03-22T08:15:43;44.45;;;24.00;;
76745;SDS011;65671;49.976;20.038;2024-03-22T08:18:10;44.60;;;25.63;;
76745;SDS011;65671;49.976;20.038;2024-03-22T08:20:36;42.78;;;22.73;;
76745;SDS011;65671;49.976;20.038;2024-03-22T08:23:04;43.20;;;23.65;;
76745;SDS011;65671;49.976;20.038;2024-03-22T08:25:29;39.03;;;23.30;;
76745;SDS011;65671;49.976;20.038;2024-03-22T08:27:55;42.03;;;23.17;;
76745;SDS011;65671;49.976;20.038;2024-03-22T08:30:21;43.15;;;23.70;;
76745;SDS011;65671;49.976;20.038;2024-03-22T08:32:47;43.40;;;22.98;;
76745;SDS011;65671;49.976;20.038;2024-03-22T08:35:13;45.28;;;23.85;;
76745;SDS011;65671;49.976;20.038;2024-03-22T08:37:38;44.45;;;23.88;;
76745;SDS011;65671;49.976;20.038;2024-03-22T08:40:04;45.45;;;21.52;;
76745;SDS011;65671;49.976;20.038;2024-03-22T08:42:30;40.47;;;22.25;;
76745;SDS011;65671;49.976;20.038;2024-03-22T08:44:55;43.33;;;22.58;;
76745;SDS011;65671;49.976;20.038;2024-03-22T08:47:21;38.17;;;21.80;;
76745;SDS011;65671;49.976;20.038;2024-03-22T08:49:46;42.90;;;22.20;;
76745;SDS011;65671;49.976;20.038;2024-03-22T08:52:11;38.08;;;22.25;;
76745;SDS011;65671;49.976;20.038;2024-03-22T08:54:37;39.50;;;21.30;;
76745;SDS011;65671;49.976;20.038;2024-03-22T08:57:02;38.00;;;20.00;;
76745;SDS011;65671;49.976;20.038;2024-03-22T08:59:28;39.38;;;21.33;;
76745;SDS011;65671;49.976;20.038;2024-03-22T09:01:53;36.58;;;20.80;;
76745;SDS011;65671;49.976;20.038;2024-03-22T09:04:19;35.20;;;20.13;;
76745;SDS011;65671;49.976;20.038;2024-03-22T09:06:45;35.97;;;21.35;;
76745;SDS011;65671;49.976;20.038;2024-03-22T09:09:10;41.42;;;21.27;;
76745;SDS011;65671;49.976;20.038;2024-03-22T09:11:36;35.80;;;19.38;;
76745;SDS011;65671;49.976;20.038;2024-03-22T09:14:01;33.13;;;19.75;;
76745;SDS011;65671;49.976;20.038;2024-03-22T09:16:27;31.65;;;18.33;;
76745;SDS011;65671;49.976;20.038;2024-03-22T09:18:52;31.48;;;17.45;;
76745;SDS011;65671;49.976;20.038;2024-03-22T09:21:18;31.58;;;17.02;;
76745;SDS011;65671;49.976;20.038;2024-03-22T09:23:43;27.35;;;16.48;;
76745;SDS011;65671;49.976;20.038;2024-03-22T09:26:09;32.00;;;17.65;;
76745;SDS011;65671;49.976;20.038;2024-03-22T09:28:34;27.95;;;16.13;;
76745;SDS011;65671;49.976;20.038;2024-03-22T09:31:03;27.08;;;14.98;;
76745;SDS011;65671;49.976;20.038;2024-03-22T09:33:30;22.73;;;14.00;;
76745;SDS011;65671;49.976;20.038;2024-03-22T09:35:56;26.23;;;15.02;;
76745;SDS011;65671;49.976;20.038;2024-03-22T09:38:22;22.85;;;13.43;;
76745;SDS011;65671;49.976;20.038;2024-03-22T09:40:47;20.52;;;11.40;;
76745;SDS011;65671;49.976;20.038;2024-03-22T09:43:12;20.50;;;11.35;;
76745;SDS011;65671;49.976;20.038;2024-03-22T09:45:43;20.45;;;11.73;;
76745;SDS011;65671;49.976;20.038;2024-03-22T09:48:10;20.77;;;11.27;;
76745;SDS011;65671;49.976;20.038;2024-03-22T09:50:35;23.75;;;11.80;;
76745;SDS011;65671;49.976;20.038;2024-03-22T09:53:01;20.10;;;11.65;;
76745;SDS011;65671;49.976;20.038;2024-03-22T09:55:29;19.42;;;11.57;;
76745;SDS011;65671;49.976;20.038;2024-03-22T09:57:57;20.73;;;11.60;;
76745;SDS011;65671;49.976;20.038;2024-03-22T10:00:22;23.35;;;11.85;;
76745;SDS011;65671;49.976;20.038;2024-03-22T10:02:50;21.70;;;11.00;;
76745;SDS011;65671;49.976;20.038;2024-03-22T10:05:16;21.38;;;11.43;;
76745;SDS011;65671;49.976;20.038;2024-03-22T10:07:43;23.55;;;10.95;;
76745;SDS011;65671;49.976;20.038;2024-03-22T10:10:09;22.67;;;11.90;;
76745;SDS011;65671;49.976;20.038;2024-03-22T10:12:35;21.00;;;11.32;;
76745;SDS011;65671;49.976;20.038;2024-03-22T10:15:01;22.08;;;12.60;;
76745;SDS011;65671;49.976;20.038;2024-03-22T10:17:27;22.40;;;11.95;;
76745;SDS011;65671;49.976;20.038;2024-03-22T10:19:53;20.98;;;11.48;;
76745;SDS011;65671;49.976;20.038;2024-03-22T10:22:19;18.30;;;10.50;;
76745;SDS011;65671;49.976;20.038;2024-03-22T10:24:44;20.45;;;10.25;;
76745;SDS011;65671;49.976;20.038;2024-03-22T10:27:10;20.60;;;10.90;;
76745;SDS011;65671;49.976;20.038;2024-03-22T10:29:36;17.45;;;10.07;;
76745;SDS011;65671;49.976;20.038;2024-03-22T10:32:02;18.27;;;10.60;;
76745;SDS011;65671;49.976;20.038;2024-03-22T10:34:28;18.92;;;10.27;;
76745;SDS011;65671;49.976;20.038;2024-03-22T10:36:55;18.27;;;9.30;;
76745;SDS011;65671;49.976;20.038;2024-03-22T10:39:22;21.98;;;10.82;;
76745;SDS011;65671;49.976;20.038;2024-03-22T10:41:49;18.13;;;10.35;;
76745;SDS011;65671;49.976;20.038;2024-03-22T10:44:15;16.65;;;9.52;;
76745;SDS011;65671;49.976;20.038;2024-03-22T10:46:45;20.58;;;11.57;;
76745;SDS011;65671;49.976;20.038;2024-03-22T10:49:15;17.90;;;10.25;;
76745;SDS011;65671;49.976;20.038;2024-03-22T10:51:43;18.98;;;10.20;;
76745;SDS011;65671;49.976;20.038;2024-03-22T10:54:12;19.23;;;11.38;;
76745;SDS011;65671;49.976;20.038;2024-03-22T10:56:42;17.95;;;10.85;;
76745;SDS011;65671;49.976;20.038;2024-03-22T10:59:08;19.88;;;10.82;;
76745;SDS011;65671;49.976;20.038;2024-03-22T11:01:34;21.58;;;11.45;;
76745;SDS011;65671;49.976;20.038;2024-03-22T11:04:04;22.42;;;12.15;;
76745;SDS011;65671;49.976;20.038;2024-03-22T11:06:38;21.92;;;10.68;;
76745;SDS011;65671;49.976;20.038;2024-03-22T11:09:04;22.90;;;12.32;;
76745;SDS011;65671;49.976;20.038;2024-03-22T11:11:30;19.95;;;11.95;;
76745;SDS011;65671;49.976;20.038;2024-03-22T11:13:56;18.48;;;11.77;;
76745;SDS011;65671;49.976;20.038;2024-03-22T11:16:22;22.33;;;12.85;;
76745;SDS011;65671;49.976;20.038;2024-03-22T11:18:47;19.65;;;12.02;;
76745;SDS011;65671;49.976;20.038;2024-03-22T11:21:17;21.50;;;12.07;;
76745;SDS011;65671;49.976;20.038;2024-03-22T11:23:46;22.27;;;12.38;;
76745;SDS011;65671;49.976;20.038;2024-03-22T11:26:12;21.45;;;12.68;;
76745;SDS011;65671;49.976;20.038;2024-03-22T11:28:37;20.73;;;12.90;;
76745;SDS011;65671;49.976;20.038;2024-03-22T11:31:04;26.63;;;13.07;;
76745;SDS011;65671;49.976;20.038;2024-03-22T11:33:32;25.42;;;13.27;;
76745;SDS011;65671;49.976;20.038;2024-03-22T11:35:58;22.40;;;12.73;;
76745;SDS011;65671;49.976;20.038;2024-03-22T11:38:25;24.10;;;14.10;;
76745;SDS011;65671;49.976;20.038;2024-03-22T11:40:52;20.52;;;12.55;;
76745;SDS011;65671;49.976;20.038;2024-03-22T11:43:19;21.13;;;12.93;;
76745;SDS011;65671;49.976;20.038;2024-03-22T11:45:45;23.52;;;13.10;;
76745;SDS011;65671;49.976;20.038;2024-03-22T11:48:10;25.55;;;13.93;;
76745;SDS011;65671;49.976;20.038;2024-03-22T11:50:37;24.27;;;13.43;;
76745;SDS011;65671;49.976;20.038;2024-03-22T11:53:04;19.83;;;12.70;;
76745;SDS011;65671;49.976;20.038;2024-03-22T11:55:30;24.13;;;13.70;;
76745;SDS011;65671;49.976;20.038;2024-03-22T11:57:59;22.05;;;13.45;;
76745;SDS011;65671;49.976;20.038;2024-03-22T12:00:27;21.60;;;12.50;;
76745;SDS011;65671;49.976;20.038;2024-03-22T12:02:53;21.23;;;13.40;;
76745;SDS011;65671;49.976;20.038;2024-03-22T12:05:19;26.48;;;15.52;;
76745;SDS011;65671;49.976;20.038;2024-03-22T12:07:46;24.05;;;14.63;;
76745;SDS011;65671;49.976;20.038;2024-03-22T12:10:11;20.95;;;13.15;;
76745;SDS011;65671;49.976;20.038;2024-03-22T12:12:36;22.77;;;12.80;;
76745;SDS011;65671;49.976;20.038;2024-03-22T12:15:05;21.83;;;12.65;;
76745;SDS011;65671;49.976;20.038;2024-03-22T12:17:31;21.55;;;13.82;;
76745;SDS011;65671;49.976;20.038;2024-03-22T12:19:56;21.88;;;12.75;;
76745;SDS011;65671;49.976;20.038;2024-03-22T12:22:22;23.35;;;13.55;;
76745;SDS011;65671;49.976;20.038;2024-03-22T12:24:48;22.08;;;12.63;;
76745;SDS011;65671;49.976;20.038;2024-03-22T12:27:13;19.88;;;12.05;;
76745;SDS011;65671;49.976;20.038;2024-03-22T12:29:39;22.70;;;12.48;;
76745;SDS011;65671;49.976;20.038;2024-03-22T12:32:04;20.65;;;11.60;;
76745;SDS011;65671;49.976;20.038;2024-03-22T12:34:31;21.17;;;12.65;;
76745;SDS011;65671;49.976;20.038;2024-03-22T12:36:57;20.83;;;12.63;;
76745;SDS011;65671;49.976;20.038;2024-03-22T12:39:23;20.42;;;11.55;;
76745;SDS011;65671;49.976;20.038;2024-03-22T12:41:49;20.20;;;11.43;;
76745;SDS011;65671;49.976;20.038;2024-03-22T12:44:15;23.23;;;13.13;;
76745;SDS011;65671;49.976;20.038;2024-03-22T12:46:40;22.30;;;13.77;;
76745;SDS011;65671;49.976;20.038;2024-03-22T12:49:10;21.30;;;13.02;;
76745;SDS011;65671;49.976;20.038;2024-03-22T12:51:36;23.38;;;13.70;;
76745;SDS011;65671;49.976;20.038;2024-03-22T12:54:02;22.67;;;13.13;;
76745;SDS011;65671;49.976;20.038;2024-03-22T12:56:28;23.08;;;13.10;;
76745;SDS011;65671;49.976;20.038;2024-03-22T12:58:53;24.33;;;14.48;;
76745;SDS011;65671;49.976;20.038;2024-03-22T13:01:19;21.92;;;12.63;;
76745;SDS011;65671;49.976;20.038;2024-03-22T13:03:45;25.63;;;13.93;;
76745;SDS011;65671;49.976;20.038;2024-03-22T13:06:10;21.40;;;12.88;;
76745;SDS011;65671;49.976;20.038;2024-03-22T13:08:35;25.17;;;14.40;;
76745;SDS011;65671;49.976;20.038;2024-03-22T13:11:01;25.08;;;14.75;;
76745;SDS011;65671;49.976;20.038;2024-03-22T13:13:27;23.92;;;13.75;;
76745;SDS011;65671;49.976;20.038;2024-03-22T13:15:52;25.38;;;13.65;;
76745;SDS011;65671;49.976;20.038;2024-03-22T13:18:17;25.08;;;13.93;;
76745;SDS011;65671;49.976;20.038;2024-03-22T13:20:46;23.70;;;13.43;;
76745;SDS011;65671;49.976;20.038;2024-03-22T13:23:12;25.10;;;14.00;;
76745;SDS011;65671;49.976;20.038;2024-03-22T13:25:38;20.45;;;13.32;;
76745;SDS011;65671;49.976;20.038;2024-03-22T13:28:04;24.48;;;13.52;;
76745;SDS011;65671;49.976;20.038;2024-03-22T13:30:32;24.83;;;14.88;;
76745;SDS011;65671;49.976;20.038;2024-03-22T13:32:58;23.58;;;13.70;;
76745;SDS011;65671;49.976;20.038;2024-03-22T13:35:24;22.67;;;13.82;;
76745;SDS011;65671;49.976;20.038;2024-03-22T13:37:50;24.27;;;13.60;;
76745;SDS011;65671;49.976;20.038;2024-03-22T13:40:15;25.55;;;14.18;;
76745;SDS011;65671;49.976;20.038;2024-03-22T13:42:41;23.40;;;13.73;;
76745;SDS011;65671;49.976;20.038;2024-03-22T13:45:06;20.88;;;13.23;;
76745;SDS011;65671;49.976;20.038;2024-03-22T13:47:32;25.95;;;14.75;;
76745;SDS011;65671;49.976;20.038;2024-03-22T13:49:58;23.88;;;14.10;;
76745;SDS011;65671;49.976;20.038;2024-03-22T13:52:23;23.98;;;14.10;;
76745;SDS011;65671;49.976;20.038;2024-03-22T13:54:48;23.70;;;13.75;;
76745;SDS011;65671;49.976;20.038;2024-03-22T13:57:17;29.38;;;16.88;;
76745;SDS011;65671;49.976;20.038;2024-03-22T13:59:42;31.13;;;16.80;;
76745;SDS011;65671;49.976;20.038;2024-03-22T14:02:08;29.45;;;15.77;;
76745;SDS011;65671;49.976;20.038;2024-03-22T14:04:36;25.23;;;15.45;;